Check out our new BloomSky Weather System.

Active alerts


No alerts


Thunder radar  blitzortung!


Rain radar more information rain snow radar


Visit our other weather sites:

Template documentation
and downloads

And another site



Weather Underground History page Text

Daily Summary for September 12, 2017 Units:  English    Metric   Both
« Previous Day
Next Day »
Daily Weekly Monthly Yearly Custom
  High: Low: Average:
Temperature: 87.4 °F 58.1 °F 73.2 °F
Dew Point: 64.4 °F 57.6 °F 60.7 °F
Humidity: 99 % 38 % 69 %
Wind Speed: 8.0 mph 0.0 mph 1.2 mph
Wind Gust: 15.0 mph - -
Wind:- - WNW
Pressure: 29.93 in 29.77 in -
Precipitation: 0.00 in    
Historical Graphs
 
 
Tabular Data for September 12, 2017
Time Temperature Dew Point Pressure Wind Wind Speed Wind Gust Humidity Rainfall Rate (Hourly)
00:01 64.4 °F 60.1 °F 29.93 in Calm     86 % 0.00 in
00:06 64.0 °F 59.7 °F 29.93 in Calm     86 % 0.00 in
00:11 63.7 °F 59.7 °F 29.93 in Calm     87 % 0.00 in
00:16 63.3 °F 59.4 °F 29.92 in Calm     87 % 0.00 in
00:21 63.0 °F 59.4 °F 29.92 in Calm     88 % 0.00 in
00:26 62.8 °F 59.5 °F 29.92 in Calm     89 % 0.00 in
00:31 62.8 °F 59.7 °F 29.92 in Calm     90 % 0.00 in
00:36 62.8 °F 60.1 °F 29.92 in Calm     91 % 0.00 in
00:41 62.8 °F 60.1 °F 29.92 in Calm     91 % 0.00 in
00:46 62.8 °F 60.1 °F 29.91 in Calm     91 % 0.00 in
00:51 63.0 °F 60.3 °F 29.91 in Calm     91 % 0.00 in
00:56 62.8 °F 60.1 °F 29.91 in Calm     91 % 0.00 in
01:01 62.8 °F 60.1 °F 29.92 in Calm     91 % 0.00 in
01:06 62.8 °F 60.4 °F 29.92 in Calm     92 % 0.00 in
01:11 63.0 °F 60.6 °F 29.91 in Calm     92 % 0.00 in
01:16 63.0 °F 60.6 °F 29.91 in Calm   1.0 mph 92 % 0.00 in
01:21 63.0 °F 60.3 °F 29.91 in Calm   1.0 mph 91 % 0.00 in
01:23 63.0 °F 60.3 °F 29.91 in Calm   1.0 mph 91 % 0.00 in
01:28 62.8 °F 60.4 °F 29.91 in Calm   1.0 mph 92 % 0.00 in
01:33 63.0 °F 60.6 °F 29.91 in Calm     92 % 0.00 in
01:38 63.0 °F 60.3 °F 29.91 in Calm     91 % 0.00 in
01:43 62.8 °F 60.4 °F 29.91 in Calm     92 % 0.00 in
01:53 62.4 °F 60.1 °F 29.91 in Calm     92 % 0.00 in
01:58 62.4 °F 60.1 °F 29.91 in Calm     92 % 0.00 in
02:03 62.2 °F 59.9 °F 29.91 in Calm     92 % 0.00 in
02:08 62.2 °F 59.9 °F 29.91 in Calm     92 % 0.00 in
02:13 62.1 °F 60.1 °F 29.91 in Calm     93 % 0.00 in
02:18 62.1 °F 60.1 °F 29.91 in Calm     93 % 0.00 in
02:23 61.9 °F 59.9 °F 29.91 in Calm     93 % 0.00 in
02:28 61.9 °F 59.9 °F 29.91 in Calm     93 % 0.00 in
02:33 61.5 °F 59.5 °F 29.91 in Calm     93 % 0.00 in
02:38 61.5 °F 59.5 °F 29.91 in Calm     93 % 0.00 in
02:43 61.3 °F 59.5 °F 29.91 in Calm     94 % 0.00 in
02:48 61.3 °F 59.5 °F 29.90 in Calm     94 % 0.00 in
02:53 61.3 °F 59.5 °F 29.90 in Calm     94 % 0.00 in
02:58 61.2 °F 59.4 °F 29.90 in Calm     94 % 0.00 in
03:03 61.0 °F 59.2 °F 29.90 in Calm     94 % 0.00 in
03:08 61.0 °F 59.5 °F 29.90 in Calm     95 % 0.00 in
03:13 61.0 °F 59.5 °F 29.90 in Calm     95 % 0.00 in
03:18 61.0 °F 59.5 °F 29.90 in Calm     95 % 0.00 in
03:23 60.8 °F 59.4 °F 29.89 in Calm     95 % 0.00 in
03:28 60.6 °F 59.2 °F 29.89 in Calm     95 % 0.00 in
03:33 60.6 °F 59.2 °F 29.89 in Calm     95 % 0.00 in
03:38 60.4 °F 59.0 °F 29.89 in Calm     95 % 0.00 in
03:43 60.4 °F 59.0 °F 29.89 in Calm     95 % 0.00 in
03:48 60.3 °F 58.8 °F 29.89 in Calm     95 % 0.00 in
03:53 60.3 °F 59.2 °F 29.89 in Calm     96 % 0.00 in
03:58 60.3 °F 59.2 °F 29.90 in Calm     96 % 0.00 in
04:03 60.4 °F 59.4 °F 29.89 in Calm     96 % 0.00 in
04:08 60.3 °F 59.2 °F 29.90 in Calm     96 % 0.00 in
04:13 60.1 °F 59.0 °F 29.90 in Calm     96 % 0.00 in
04:18 60.1 °F 59.0 °F 29.90 in Calm     96 % 0.00 in
04:23 60.1 °F 59.0 °F 29.90 in Calm     96 % 0.00 in
04:28 60.1 °F 59.2 °F 29.89 in Calm     97 % 0.00 in
04:33 59.9 °F 58.8 °F 29.89 in Calm     96 % 0.00 in
04:38 59.7 °F 58.8 °F 29.89 in Calm     97 % 0.00 in
04:43 59.7 °F 58.6 °F 29.89 in Calm     96 % 0.00 in
04:48 59.5 °F 58.5 °F 29.89 in Calm     96 % 0.00 in
04:54 59.7 °F 58.8 °F 29.89 in Calm     97 % 0.00 in
04:59 59.5 °F 58.6 °F 29.89 in Calm     97 % 0.00 in
05:01 59.5 °F 58.6 °F 29.89 in Calm     97 % 0.00 in
05:06 59.4 °F 58.5 °F 29.89 in Calm     97 % 0.00 in
05:11 59.4 °F 58.5 °F 29.89 in Calm     97 % 0.00 in
05:16 59.4 °F 58.5 °F 29.89 in Calm     97 % 0.00 in
05:21 59.4 °F 58.5 °F 29.89 in Calm     97 % 0.00 in
05:26 59.4 °F 58.5 °F 29.89 in Calm     97 % 0.00 in
05:31 59.4 °F 58.5 °F 29.88 in Calm     97 % 0.00 in
05:37 59.2 °F 58.3 °F 29.88 in Calm     97 % 0.00 in
05:42 59.2 °F 58.3 °F 29.89 in Calm     97 % 0.00 in
05:47 59.2 °F 58.3 °F 29.89 in Calm     97 % 0.00 in
05:52 59.0 °F 58.1 °F 29.89 in Calm     97 % 0.00 in
05:57 58.8 °F 57.9 °F 29.89 in Calm     97 % 0.00 in
06:02 58.8 °F 57.9 °F 29.89 in Calm     97 % 0.00 in
06:07 58.6 °F 57.7 °F 29.89 in Calm     97 % 0.00 in
06:12 58.6 °F 57.7 °F 29.89 in Calm     97 % 0.00 in
06:17 58.8 °F 58.3 °F 29.89 in Calm     98 % 0.00 in
06:22 58.8 °F 58.3 °F 29.89 in Calm     98 % 0.00 in
06:27 58.8 °F 58.3 °F 29.89 in Calm     98 % 0.00 in
06:32 58.6 °F 58.1 °F 29.89 in Calm     98 % 0.00 in
06:37 58.6 °F 58.1 °F 29.89 in Calm     98 % 0.00 in
06:42 58.6 °F 58.1 °F 29.89 in Calm     98 % 0.00 in
06:47 58.5 °F 57.9 °F 29.90 in Calm     98 % 0.00 in
06:52 58.5 °F 57.9 °F 29.90 in Calm     98 % 0.00 in
06:57 58.5 °F 57.9 °F 29.90 in Calm     98 % 0.00 in
07:02 58.3 °F 57.7 °F 29.90 in Calm     98 % 0.00 in
07:07 58.3 °F 57.7 °F 29.90 in Calm     98 % 0.00 in
07:12 58.1 °F 57.6 °F 29.90 in Calm     98 % 0.00 in
07:17 58.3 °F 57.7 °F 29.90 in Calm     98 % 0.00 in
07:22 58.5 °F 57.9 °F 29.90 in Calm     98 % 0.00 in
07:27 58.5 °F 57.9 °F 29.90 in Calm     98 % 0.00 in
07:32 58.6 °F 58.1 °F 29.90 in Calm     98 % 0.00 in
07:37 58.6 °F 58.1 °F 29.90 in Calm     98 % 0.00 in
07:42 59.0 °F 58.5 °F 29.90 in Calm     98 % 0.00 in
07:47 59.5 °F 59.2 °F 29.90 in Calm   1.0 mph 99 % 0.00 in
07:52 60.3 °F 59.7 °F 29.90 in Calm   3.0 mph 98 % 0.00 in
07:57 61.0 °F 60.4 °F 29.90 in WNW 1.0 mph 3.0 mph 98 % 0.00 in
08:02 61.7 °F 60.6 °F 29.90 in Calm   3.0 mph 96 % 0.00 in
08:07 62.6 °F 60.8 °F 29.90 in Calm   2.0 mph 94 % 0.00 in
08:11 63.3 °F 61.0 °F 29.91 in Calm   2.0 mph 92 % 0.00 in
08:17 64.0 °F 60.8 °F 29.91 in Calm   2.0 mph 89 % 0.00 in
08:22 64.9 °F 61.3 °F 29.90 in Calm   2.0 mph 88 % 0.00 in
08:27 65.5 °F 60.4 °F 29.90 in NW 1.0 mph 2.0 mph 84 % 0.00 in
08:32 66.0 °F 60.6 °F 29.90 in Calm   2.0 mph 83 % 0.00 in
08:37 66.9 °F 61.9 °F 29.91 in NW 1.0 mph 2.0 mph 84 % 0.00 in
08:42 67.5 °F 61.2 °F 29.90 in Calm   2.0 mph 80 % 0.00 in
08:47 68.2 °F 61.7 °F 29.91 in Calm   2.0 mph 80 % 0.00 in
08:52 68.7 °F 61.5 °F 29.91 in WNW 1.0 mph 2.0 mph 78 % 0.00 in
08:57 69.4 °F 61.5 °F 29.91 in SW 1.0 mph 3.0 mph 76 % 0.00 in
09:02 70.0 °F 61.7 °F 29.91 in Calm   4.0 mph 75 % 0.00 in
09:07 70.3 °F 62.1 °F 29.91 in Calm   4.0 mph 75 % 0.00 in
09:12 70.9 °F 62.2 °F 29.91 in NW 2.0 mph 4.0 mph 74 % 0.00 in
09:17 71.1 °F 61.5 °F 29.91 in NW 2.0 mph 4.0 mph 72 % 0.00 in
09:22 71.8 °F 62.2 °F 29.91 in WNW 3.0 mph 5.0 mph 72 % 0.00 in
09:27 72.1 °F 62.6 °F 29.91 in NW 3.0 mph 6.0 mph 72 % 0.00 in
09:32 72.7 °F 62.8 °F 29.91 in West 1.0 mph 6.0 mph 71 % 0.00 in
09:37 73.9 °F 63.1 °F 29.90 in West 1.0 mph 6.0 mph 69 % 0.00 in
09:42 74.8 °F 63.1 °F 29.90 in WSW 7.0 mph 7.0 mph 67 % 0.00 in
09:47 75.2 °F 62.6 °F 29.90 in NNW 1.0 mph 8.0 mph 65 % 0.00 in
09:52 75.6 °F 62.1 °F 29.90 in WNW 2.0 mph 8.0 mph 63 % 0.00 in
09:57 75.9 °F 62.4 °F 29.90 in NW 1.0 mph 8.0 mph 63 % 0.00 in
10:02 76.3 °F 61.3 °F 29.90 in NW 3.0 mph 6.0 mph 60 % 0.00 in
10:07 76.5 °F 62.1 °F 29.90 in NW 3.0 mph 6.0 mph 61 % 0.00 in
10:12 76.8 °F 62.4 °F 29.90 in WNW 2.0 mph 5.0 mph 61 % 0.00 in
10:17 77.4 °F 61.9 °F 29.90 in NNW 4.0 mph 5.0 mph 59 % 0.00 in
10:22 78.1 °F 63.5 °F 29.90 in West 2.0 mph 5.0 mph 61 % 0.00 in
10:27 78.4 °F 61.5 °F 29.90 in NNW 7.0 mph 7.0 mph 56 % 0.00 in
10:32 78.6 °F 63.1 °F 29.90 in Calm   8.0 mph 59 % 0.00 in
10:37 79.3 °F 62.8 °F 29.90 in Calm   8.0 mph 57 % 0.00 in
10:47 79.3 °F 61.7 °F 29.89 in NW 5.0 mph 8.0 mph 55 % 0.00 in
10:52 79.0 °F 61.9 °F 29.89 in SW 2.0 mph 10.0 mph 56 % 0.00 in
10:57 79.5 °F 61.9 °F 29.89 in West 2.0 mph 10.0 mph 55 % 0.00 in
11:02 80.1 °F 62.4 °F 29.89 in WSW 1.0 mph 10.0 mph 55 % 0.00 in
11:07 80.6 °F 61.9 °F 29.89 in West 1.0 mph 7.0 mph 53 % 0.00 in
11:12 81.0 °F 62.2 °F 29.89 in West 3.0 mph 7.0 mph 53 % 0.00 in
11:17 81.1 °F 62.4 °F 29.89 in West 1.0 mph 7.0 mph 53 % 0.00 in
11:22 81.9 °F 62.4 °F 29.89 in NW 3.0 mph 7.0 mph 52 % 0.00 in
11:28 81.9 °F 61.9 °F 29.88 in NNW 5.0 mph 7.0 mph 51 % 0.00 in
11:33 81.3 °F 62.1 °F 29.88 in WNW 4.0 mph 6.0 mph 52 % 0.00 in
11:38 81.5 °F 63.3 °F 29.88 in ESE 1.0 mph 6.0 mph 54 % 0.00 in
11:43 82.2 °F 62.2 °F 29.88 in SSE 1.0 mph 6.0 mph 51 % 0.00 in
11:48 82.9 °F 61.9 °F 29.88 in West 1.0 mph 7.0 mph 49 % 0.00 in
11:53 83.1 °F 62.1 °F 29.88 in NW 2.0 mph 7.0 mph 49 % 0.00 in
11:58 82.9 °F 61.2 °F 29.88 in WSW 2.0 mph 7.0 mph 48 % 0.00 in
12:03 82.6 °F 61.5 °F 29.87 in WSW 5.0 mph 10.0 mph 49 % 0.00 in
12:08 82.4 °F 61.3 °F 29.87 in WNW 1.0 mph 10.0 mph 49 % 0.00 in
12:13 82.4 °F 62.4 °F 29.87 in NW 8.0 mph 10.0 mph 51 % 0.00 in
12:18 82.6 °F 59.7 °F 29.87 in NNW 7.0 mph 11.0 mph 46 % 0.00 in
12:23 82.8 °F 59.2 °F 29.87 in WNW 5.0 mph 15.0 mph 45 % 0.00 in
12:28 82.9 °F 60.6 °F 29.86 in West 3.0 mph 15.0 mph 47 % 0.00 in
12:33 82.9 °F 60.1 °F 29.86 in SW 4.0 mph 15.0 mph 46 % 0.00 in
12:38 83.1 °F 60.8 °F 29.86 in WSW 3.0 mph 11.0 mph 47 % 0.00 in
12:43 83.5 °F 59.9 °F 29.86 in NNW 8.0 mph 11.0 mph 45 % 0.00 in
12:48 83.7 °F 60.1 °F 29.86 in NW 5.0 mph 12.0 mph 45 % 0.00 in
12:53 84.0 °F 60.4 °F 29.86 in WNW 5.0 mph 12.0 mph 45 % 0.00 in
12:58 83.8 °F 60.3 °F 29.86 in WNW 6.0 mph 12.0 mph 45 % 0.00 in
13:03 83.7 °F 60.1 °F 29.86 in WNW 5.0 mph 11.0 mph 45 % 0.00 in
13:08 83.7 °F 60.6 °F 29.85 in NW 4.0 mph 12.0 mph 46 % 0.00 in
13:13 84.0 °F 61.0 °F 29.85 in NNW 3.0 mph 12.0 mph 46 % 0.00 in
13:18 83.8 °F 60.8 °F 29.85 in NW 3.0 mph 12.0 mph 46 % 0.00 in
13:23 84.0 °F 61.0 °F 29.85 in NW 4.0 mph 10.0 mph 46 % 0.00 in
13:28 84.0 °F 61.0 °F 29.85 in NW 4.0 mph 10.0 mph 46 % 0.00 in
13:33 84.2 °F 61.7 °F 29.85 in North 4.0 mph 10.0 mph 47 % 0.00 in
13:34 84.2 °F 61.7 °F 29.84 in WNW 4.0 mph 10.0 mph 47 % 0.00 in
13:39 84.0 °F 61.0 °F 29.84 in West 5.0 mph 10.0 mph 46 % 0.00 in
13:44 84.2 °F 59.9 °F 29.84 in NW 3.0 mph 12.0 mph 44 % 0.00 in
13:49 84.7 °F 61.0 °F 29.84 in West 2.0 mph 12.0 mph 45 % 0.00 in
13:54 84.9 °F 59.9 °F 29.83 in West 8.0 mph 12.0 mph 43 % 0.00 in
13:59 85.1 °F 60.8 °F 29.83 in WNW 3.0 mph 12.0 mph 44 % 0.00 in
14:04 85.5 °F 60.4 °F 29.83 in NW 5.0 mph 11.0 mph 43 % 0.00 in
14:09 85.8 °F 60.8 °F 29.83 in NNW 2.0 mph 11.0 mph 43 % 0.00 in
14:14 86.2 °F 61.0 °F 29.83 in NW 6.0 mph 7.0 mph 43 % 0.00 in
14:19 85.6 °F 58.5 °F 29.83 in Calm   8.0 mph 40 % 0.00 in
14:24 85.8 °F 61.3 °F 29.82 in West 1.0 mph 8.0 mph 44 % 0.00 in
14:29 86.5 °F 60.1 °F 29.82 in WSW 1.0 mph 8.0 mph 41 % 0.00 in
14:34 86.4 °F 57.7 °F 29.82 in NNW 7.0 mph 8.0 mph 38 % 0.00 in
14:39 85.6 °F 57.9 °F 29.82 in West 4.0 mph 11.0 mph 39 % 0.00 in
14:44 85.5 °F 59.7 °F 29.81 in NW 6.0 mph 11.0 mph 42 % 0.00 in
14:49 85.6 °F 57.9 °F 29.81 in NNW 6.0 mph 11.0 mph 39 % 0.00 in
14:54 85.5 °F 58.5 °F 29.81 in NNW 5.0 mph 10.0 mph 40 % 0.00 in
14:59 85.3 °F 59.0 °F 29.81 in North 1.0 mph 11.0 mph 41 % 0.00 in
15:04 85.5 °F 59.0 °F 29.81 in NNW 2.0 mph 11.0 mph 41 % 0.00 in
15:09 85.8 °F 59.4 °F 29.80 in NW 5.0 mph 11.0 mph 41 % 0.00 in
15:14 85.8 °F 60.1 °F 29.80 in NNW 7.0 mph 9.0 mph 42 % 0.00 in
15:19 85.8 °F 60.1 °F 29.80 in NNW 4.0 mph 11.0 mph 42 % 0.00 in
15:24 86.4 °F 60.6 °F 29.79 in WNW 1.0 mph 11.0 mph 42 % 0.00 in
15:29 86.5 °F 59.4 °F 29.79 in NNW 3.0 mph 11.0 mph 40 % 0.00 in
15:34 86.2 °F 60.4 °F 29.79 in WNW 1.0 mph 10.0 mph 42 % 0.00 in
15:39 86.0 °F 60.3 °F 29.79 in WSW 2.0 mph 10.0 mph 42 % 0.00 in
15:44 86.4 °F 61.9 °F 29.78 in NNW 1.0 mph 8.0 mph 44 % 0.00 in
15:49 87.1 °F 61.9 °F 29.78 in West 7.0 mph 8.0 mph 43 % 0.00 in
15:54 86.5 °F 59.4 °F 29.78 in NNW 2.0 mph 10.0 mph 40 % 0.00 in
15:59 86.4 °F 61.2 °F 29.78 in Calm   10.0 mph 43 % 0.00 in
16:05 86.4 °F 60.6 °F 29.78 in Calm   10.0 mph 42 % 0.00 in
16:10 87.1 °F 61.9 °F 29.78 in WNW 6.0 mph 9.0 mph 43 % 0.00 in
16:15 87.3 °F 59.9 °F 29.78 in WSW 1.0 mph 6.0 mph 40 % 0.00 in
16:20 87.4 °F 59.4 °F 29.78 in WNW 4.0 mph 8.0 mph 39 % 0.00 in
16:25 86.5 °F 60.1 °F 29.78 in Calm   8.0 mph 41 % 0.00 in
16:30 86.2 °F 59.7 °F 29.77 in NW 4.0 mph 8.0 mph 41 % 0.00 in
16:35 86.2 °F 59.7 °F 29.77 in WSW 1.0 mph 5.0 mph 41 % 0.00 in
16:40 86.0 °F 59.5 °F 29.77 in WNW 4.0 mph 8.0 mph 41 % 0.00 in
16:45 85.8 °F 58.6 °F 29.77 in NW 1.0 mph 8.0 mph 40 % 0.00 in
16:50 86.0 °F 60.3 °F 29.77 in WSW 1.0 mph 8.0 mph 42 % 0.00 in
16:55 86.4 °F 59.2 °F 29.77 in WSW 2.0 mph 8.0 mph 40 % 0.00 in
17:00 86.2 °F 59.7 °F 29.77 in NW 6.0 mph 7.0 mph 41 % 0.00 in
17:05 85.6 °F 60.6 °F 29.77 in NNW 4.0 mph 7.0 mph 43 % 0.00 in
17:10 85.8 °F 60.8 °F 29.77 in NW 3.0 mph 7.0 mph 43 % 0.00 in
17:15 86.0 °F 60.3 °F 29.77 in NW 2.0 mph 7.0 mph 42 % 0.00 in
17:20 86.0 °F 60.3 °F 29.77 in Calm   5.0 mph 42 % 0.00 in
17:25 86.4 °F 60.6 °F 29.77 in NNW 3.0 mph 5.0 mph 42 % 0.00 in
17:30 86.4 °F 61.2 °F 29.77 in NW 2.0 mph 3.0 mph 43 % 0.00 in
17:35 86.4 °F 59.9 °F 29.77 in Calm   4.0 mph 41 % 0.00 in
17:40 86.5 °F 60.8 °F 29.77 in NW 1.0 mph 4.0 mph 42 % 0.00 in
17:41 86.7 °F 61.5 °F 29.77 in Calm   4.0 mph 43 % 0.00 in
17:46 86.5 °F 61.3 °F 29.77 in North 1.0 mph 4.0 mph 43 % 0.00 in
17:51 86.2 °F 61.0 °F 29.77 in Calm   4.0 mph 43 % 0.00 in
17:56 86.0 °F 61.0 °F 29.77 in Calm   4.0 mph 43 % 0.00 in
18:01 86.0 °F 61.5 °F 29.77 in NNW 4.0 mph 4.0 mph 44 % 0.00 in
18:07 85.5 °F 61.0 °F 29.78 in NE 2.0 mph 5.0 mph 44 % 0.00 in
18:12 85.3 °F 61.5 °F 29.77 in NW 1.0 mph 5.0 mph 45 % 0.00 in
18:17 85.3 °F 61.5 °F 29.77 in NW 1.0 mph 5.0 mph 45 % 0.00 in
18:22 85.3 °F 60.3 °F 29.77 in NW 1.0 mph 5.0 mph 43 % 0.00 in
18:27 84.9 °F 60.6 °F 29.78 in Calm   5.0 mph 44 % 0.00 in
18:32 84.7 °F 60.4 °F 29.78 in NW 1.0 mph 5.0 mph 44 % 0.00 in
18:37 84.6 °F 60.8 °F 29.78 in Calm   3.0 mph 45 % 0.00 in
18:42 84.6 °F 60.8 °F 29.77 in Calm   2.0 mph 45 % 0.00 in
18:47 84.4 °F 61.3 °F 29.77 in ENE 1.0 mph 2.0 mph 46 % 0.00 in
18:52 84.0 °F 61.0 °F 29.77 in Calm   2.0 mph 46 % 0.00 in
18:57 83.7 °F 60.6 °F 29.78 in Calm   2.0 mph 46 % 0.00 in
19:02 83.1 °F 60.8 °F 29.78 in Calm   2.0 mph 47 % 0.00 in
19:07 82.9 °F 61.2 °F 29.77 in Calm   1.0 mph 48 % 0.00 in
19:12 82.6 °F 61.0 °F 29.77 in Calm   1.0 mph 48 % 0.00 in
19:17 82.0 °F 61.0 °F 29.77 in Calm   1.0 mph 49 % 0.00 in
19:22 81.7 °F 61.2 °F 29.77 in Calm   1.0 mph 50 % 0.00 in
19:27 81.3 °F 61.5 °F 29.77 in Calm   1.0 mph 51 % 0.00 in
19:32 81.0 °F 61.2 °F 29.77 in Calm   1.0 mph 51 % 0.00 in
19:37 80.4 °F 61.7 °F 29.77 in Calm   1.0 mph 53 % 0.00 in
19:42 79.5 °F 61.3 °F 29.77 in Calm     54 % 0.00 in
19:47 79.0 °F 61.9 °F 29.77 in Calm     56 % 0.00 in
19:52 78.3 °F 61.3 °F 29.77 in Calm     56 % 0.00 in
19:57 77.7 °F 61.3 °F 29.77 in Calm     57 % 0.00 in
19:58 77.5 °F 61.2 °F 29.77 in Calm     57 % 0.00 in
20:03 77.0 °F 61.5 °F 29.77 in Calm     59 % 0.00 in
20:08 76.6 °F 62.2 °F 29.77 in Calm     61 % 0.00 in
20:13 76.3 °F 61.9 °F 29.77 in Calm     61 % 0.00 in
20:18 75.9 °F 61.9 °F 29.77 in Calm     62 % 0.00 in
20:19 75.9 °F 61.9 °F 29.77 in Calm     62 % 0.00 in
20:24 75.7 °F 61.9 °F 29.77 in Calm     62 % 0.00 in
20:29 75.6 °F 61.7 °F 29.77 in Calm   1.0 mph 62 % 0.00 in
20:34 75.4 °F 61.5 °F 29.77 in Calm   1.0 mph 62 % 0.00 in
20:39 75.0 °F 63.0 °F 29.77 in Calm   1.0 mph 66 % 0.00 in
20:44 75.4 °F 63.1 °F 29.77 in Calm     66 % 0.00 in
20:49 75.7 °F 63.5 °F 29.77 in Calm   1.0 mph 66 % 0.00 in
20:54 75.7 °F 63.5 °F 29.77 in Calm   1.0 mph 66 % 0.00 in
20:59 75.4 °F 63.1 °F 29.77 in Calm   1.0 mph 66 % 0.00 in
21:04 75.0 °F 63.3 °F 29.77 in Calm   1.0 mph 67 % 0.00 in
21:09 74.8 °F 63.5 °F 29.77 in Calm     68 % 0.00 in
21:14 74.7 °F 63.3 °F 29.78 in Calm     68 % 0.00 in
21:19 74.5 °F 63.1 °F 29.78 in Calm     68 % 0.00 in
21:24 74.1 °F 63.3 °F 29.78 in Calm     69 % 0.00 in
21:29 73.9 °F 63.5 °F 29.78 in Calm     70 % 0.00 in
21:34 73.6 °F 63.1 °F 29.78 in Calm     70 % 0.00 in
21:39 73.8 °F 63.7 °F 29.78 in Calm     71 % 0.00 in
21:44 73.9 °F 63.9 °F 29.78 in Calm     71 % 0.00 in
21:49 73.9 °F 63.9 °F 29.78 in Calm     71 % 0.00 in
21:54 73.8 °F 64.2 °F 29.78 in Calm     72 % 0.00 in
21:59 73.6 °F 64.0 °F 29.78 in Calm     72 % 0.00 in
22:04 73.2 °F 64.0 °F 29.78 in Calm     73 % 0.00 in
22:09 73.0 °F 63.9 °F 29.78 in Calm     73 % 0.00 in
22:14 72.9 °F 63.7 °F 29.78 in Calm     73 % 0.00 in
22:19 72.3 °F 63.5 °F 29.78 in Calm     74 % 0.00 in
22:23 72.0 °F 64.4 °F 29.78 in Calm     77 % 0.00 in
22:28 71.8 °F 63.9 °F 29.78 in Calm     76 % 0.00 in
22:34 71.6 °F 63.7 °F 29.78 in Calm     76 % 0.00 in
22:39 71.4 °F 63.5 °F 29.78 in Calm     76 % 0.00 in
22:44 71.6 °F 63.3 °F 29.78 in SSE 1.0 mph   75 % 0.00 in
22:49 72.3 °F 63.1 °F 29.78 in ESE 1.0 mph 1.0 mph 73 % 0.00 in
22:54 73.0 °F 63.1 °F 29.78 in ESE 1.0 mph 2.0 mph 71 % 0.00 in
22:59 73.6 °F 63.1 °F 29.78 in East 1.0 mph 2.0 mph 70 % 0.00 in
23:04 73.8 °F 63.3 °F 29.78 in Calm   2.0 mph 70 % 0.00 in
23:09 73.6 °F 63.1 °F 29.79 in Calm   2.0 mph 70 % 0.00 in
23:14 73.6 °F 63.7 °F 29.79 in Calm   2.0 mph 71 % 0.00 in
23:19 73.4 °F 63.5 °F 29.79 in Calm   1.0 mph 71 % 0.00 in
23:24 73.2 °F 63.3 °F 29.79 in Calm   1.0 mph 71 % 0.00 in
23:29 73.0 °F 63.5 °F 29.79 in Calm   1.0 mph 72 % 0.00 in
23:34 72.7 °F 63.1 °F 29.79 in Calm   1.0 mph 72 % 0.00 in
23:39 72.3 °F 63.1 °F 29.79 in Calm   1.0 mph 73 % 0.00 in
23:41 72.3 °F 63.1 °F 29.79 in Calm   1.0 mph 73 % 0.00 in
23:46 72.0 °F 63.1 °F 29.79 in Calm   1.0 mph 74 % 0.00 in
23:51 71.8 °F 63.0 °F 29.79 in Calm     74 % 0.00 in
23:56 71.6 °F 63.3 °F 29.79 in SSE 1.0 mph 2.0 mph 75 % 0.00 in
Spring, Texas: Villages of Bridgestone
Compliments of Weather Underground - 2.75 mb

Script developed by  Jim McMurry - jmcmurry@mwt.net Adapted for the template by  Wim van der Kuil - Leuven-Template.eu

You find our weather info also at:

UK Metoffice

WeatherCloud

Weather Underground

Mid-South Weather Network

AWEKAS

Citizen Weather Observer Program (CWOP)

HAMweather, WeatherForYou, PWS Weather

Equipment we use:

Weather-station
Davis Vantage Vue

Weather-program
Meteohub

Weather-server
Debian 7.9 x86 (Guest)

Provider
DreamHost

Davis Vantage Vue

Meteohub

Debian 7.9 x86 (Guest)

DreamHost